sensor_id;sensor_type;location;lat;lon;timestamp;P1;durP1;ratioP1;P2;durP2;ratioP2
10365;SDS011;5229;41.820;23.490;2023-05-07T00:01:33;4.67;;;2.63;;
10365;SDS011;5229;41.820;23.490;2023-05-07T00:04:00;2.77;;;2.57;;
10365;SDS011;5229;41.820;23.490;2023-05-07T00:06:27;2.60;;;2.40;;
10365;SDS011;5229;41.820;23.490;2023-05-07T00:08:54;3.20;;;2.90;;
10365;SDS011;5229;41.820;23.490;2023-05-07T00:11:22;3.10;;;2.80;;
10365;SDS011;5229;41.820;23.490;2023-05-07T00:13:49;3.20;;;2.90;;
10365;SDS011;5229;41.820;23.490;2023-05-07T00:16:16;4.07;;;2.90;;
10365;SDS011;5229;41.820;23.490;2023-05-07T00:18:42;3.57;;;2.87;;
10365;SDS011;5229;41.820;23.490;2023-05-07T00:21:10;3.50;;;3.20;;
10365;SDS011;5229;41.820;23.490;2023-05-07T00:23:37;3.57;;;3.27;;
10365;SDS011;5229;41.820;23.490;2023-05-07T00:26:04;2.73;;;2.53;;
10365;SDS011;5229;41.820;23.490;2023-05-07T00:28:32;3.83;;;2.67;;
10365;SDS011;5229;41.820;23.490;2023-05-07T00:30:59;3.43;;;3.13;;
10365;SDS011;5229;41.820;23.490;2023-05-07T00:33:26;3.10;;;2.43;;
10365;SDS011;5229;41.820;23.490;2023-05-07T00:35:52;2.73;;;2.53;;
10365;SDS011;5229;41.820;23.490;2023-05-07T00:38:20;3.50;;;3.20;;
10365;SDS011;5229;41.820;23.490;2023-05-07T00:40:47;3.60;;;2.70;;
10365;SDS011;5229;41.820;23.490;2023-05-07T00:43:13;2.80;;;2.60;;
10365;SDS011;5229;41.820;23.490;2023-05-07T00:45:42;3.30;;;3.00;;
10365;SDS011;5229;41.820;23.490;2023-05-07T00:48:09;4.97;;;3.10;;
10365;SDS011;5229;41.820;23.490;2023-05-07T00:50:36;2.97;;;2.47;;
10365;SDS011;5229;41.820;23.490;2023-05-07T00:53:03;3.83;;;2.70;;
10365;SDS011;5229;41.820;23.490;2023-05-07T00:55:30;3.40;;;2.97;;
10365;SDS011;5229;41.820;23.490;2023-05-07T00:57:57;3.47;;;2.60;;
10365;SDS011;5229;41.820;23.490;2023-05-07T01:00:24;3.60;;;3.30;;
10365;SDS011;5229;41.820;23.490;2023-05-07T01:02:52;3.33;;;3.03;;
10365;SDS011;5229;41.820;23.490;2023-05-07T01:05:19;4.47;;;2.53;;
10365;SDS011;5229;41.820;23.490;2023-05-07T01:07:48;3.13;;;2.83;;
10365;SDS011;5229;41.820;23.490;2023-05-07T01:10:15;3.03;;;2.83;;
10365;SDS011;5229;41.820;23.490;2023-05-07T01:12:44;3.50;;;3.10;;
10365;SDS011;5229;41.820;23.490;2023-05-07T01:15:12;3.57;;;2.80;;
10365;SDS011;5229;41.820;23.490;2023-05-07T01:17:40;4.30;;;2.67;;
10365;SDS011;5229;41.820;23.490;2023-05-07T01:20:09;6.60;;;2.97;;
10365;SDS011;5229;41.820;23.490;2023-05-07T01:22:38;4.23;;;3.10;;
10365;SDS011;5229;41.820;23.490;2023-05-07T01:25:06;5.00;;;3.07;;
10365;SDS011;5229;41.820;23.490;2023-05-07T01:27:34;2.80;;;2.60;;
10365;SDS011;5229;41.820;23.490;2023-05-07T01:30:02;4.63;;;2.80;;
10365;SDS011;5229;41.820;23.490;2023-05-07T01:32:31;3.10;;;2.80;;
10365;SDS011;5229;41.820;23.490;2023-05-07T01:34:59;2.83;;;2.60;;
10365;SDS011;5229;41.820;23.490;2023-05-07T01:37:29;3.10;;;2.80;;
10365;SDS011;5229;41.820;23.490;2023-05-07T01:39:57;3.00;;;2.63;;
10365;SDS011;5229;41.820;23.490;2023-05-07T01:42:24;3.13;;;2.83;;
10365;SDS011;5229;41.820;23.490;2023-05-07T01:44:51;4.20;;;2.80;;
10365;SDS011;5229;41.820;23.490;2023-05-07T01:47:18;3.93;;;2.80;;
10365;SDS011;5229;41.820;23.490;2023-05-07T01:49:46;3.90;;;3.10;;
10365;SDS011;5229;41.820;23.490;2023-05-07T01:52:13;4.13;;;2.60;;
10365;SDS011;5229;41.820;23.490;2023-05-07T01:54:40;4.77;;;2.57;;
10365;SDS011;5229;41.820;23.490;2023-05-07T01:57:09;3.00;;;2.70;;
10365;SDS011;5229;41.820;23.490;2023-05-07T01:59:35;2.80;;;2.60;;
10365;SDS011;5229;41.820;23.490;2023-05-07T02:02:02;5.43;;;2.77;;
10365;SDS011;5229;41.820;23.490;2023-05-07T02:04:29;3.07;;;2.70;;
10365;SDS011;5229;41.820;23.490;2023-05-07T02:06:56;3.60;;;2.70;;
10365;SDS011;5229;41.820;23.490;2023-05-07T02:09:22;4.30;;;2.80;;
10365;SDS011;5229;41.820;23.490;2023-05-07T02:11:49;3.20;;;2.90;;
10365;SDS011;5229;41.820;23.490;2023-05-07T02:14:18;3.43;;;2.63;;
10365;SDS011;5229;41.820;23.490;2023-05-07T02:16:45;4.53;;;3.00;;
10365;SDS011;5229;41.820;23.490;2023-05-07T02:19:12;3.87;;;2.87;;
10365;SDS011;5229;41.820;23.490;2023-05-07T02:21:38;3.47;;;3.00;;
10365;SDS011;5229;41.820;23.490;2023-05-07T02:24:05;5.30;;;2.73;;
10365;SDS011;5229;41.820;23.490;2023-05-07T02:26:32;3.40;;;2.90;;
10365;SDS011;5229;41.820;23.490;2023-05-07T02:28:59;3.47;;;2.93;;
10365;SDS011;5229;41.820;23.490;2023-05-07T02:31:27;3.93;;;2.70;;
10365;SDS011;5229;41.820;23.490;2023-05-07T02:33:54;5.50;;;2.93;;
10365;SDS011;5229;41.820;23.490;2023-05-07T02:36:21;4.13;;;2.87;;
10365;SDS011;5229;41.820;23.490;2023-05-07T02:38:47;2.90;;;2.60;;
10365;SDS011;5229;41.820;23.490;2023-05-07T02:41:14;3.90;;;2.90;;
10365;SDS011;5229;41.820;23.490;2023-05-07T02:43:41;5.33;;;3.33;;
10365;SDS011;5229;41.820;23.490;2023-05-07T02:46:08;3.47;;;2.63;;
10365;SDS011;5229;41.820;23.490;2023-05-07T02:48:37;3.83;;;2.90;;
10365;SDS011;5229;41.820;23.490;2023-05-07T02:51:04;4.33;;;3.20;;
10365;SDS011;5229;41.820;23.490;2023-05-07T02:53:31;2.70;;;2.47;;
10365;SDS011;5229;41.820;23.490;2023-05-07T02:55:59;3.50;;;2.83;;
10365;SDS011;5229;41.820;23.490;2023-05-07T02:58:27;3.63;;;2.87;;
10365;SDS011;5229;41.820;23.490;2023-05-07T03:00:54;3.13;;;2.83;;
10365;SDS011;5229;41.820;23.490;2023-05-07T03:03:20;4.20;;;2.63;;
10365;SDS011;5229;41.820;23.490;2023-05-07T03:05:48;3.23;;;2.70;;
10365;SDS011;5229;41.820;23.490;2023-05-07T03:08:15;2.80;;;2.50;;
10365;SDS011;5229;41.820;23.490;2023-05-07T03:10:42;3.20;;;2.90;;
10365;SDS011;5229;41.820;23.490;2023-05-07T03:13:09;6.53;;;2.63;;
10365;SDS011;5229;41.820;23.490;2023-05-07T03:15:36;3.83;;;2.80;;
10365;SDS011;5229;41.820;23.490;2023-05-07T03:18:03;4.83;;;2.50;;
10365;SDS011;5229;41.820;23.490;2023-05-07T03:20:30;2.70;;;2.50;;
10365;SDS011;5229;41.820;23.490;2023-05-07T03:22:58;2.83;;;2.63;;
10365;SDS011;5229;41.820;23.490;2023-05-07T03:25:25;3.20;;;2.90;;
10365;SDS011;5229;41.820;23.490;2023-05-07T03:27:52;3.03;;;2.73;;
10365;SDS011;5229;41.820;23.490;2023-05-07T03:30:18;3.60;;;2.90;;
10365;SDS011;5229;41.820;23.490;2023-05-07T03:32:45;2.80;;;2.50;;
10365;SDS011;5229;41.820;23.490;2023-05-07T03:35:12;3.40;;;3.10;;
10365;SDS011;5229;41.820;23.490;2023-05-07T03:37:39;2.80;;;2.60;;
10365;SDS011;5229;41.820;23.490;2023-05-07T03:40:08;4.27;;;3.00;;
10365;SDS011;5229;41.820;23.490;2023-05-07T03:42:37;3.63;;;2.77;;
10365;SDS011;5229;41.820;23.490;2023-05-07T03:45:04;2.97;;;2.67;;
10365;SDS011;5229;41.820;23.490;2023-05-07T03:47:31;2.80;;;2.50;;
10365;SDS011;5229;41.820;23.490;2023-05-07T03:49:58;2.93;;;2.43;;
10365;SDS011;5229;41.820;23.490;2023-05-07T03:52:25;10.63;;;3.10;;
10365;SDS011;5229;41.820;23.490;2023-05-07T03:54:52;2.63;;;2.43;;
10365;SDS011;5229;41.820;23.490;2023-05-07T03:57:20;4.93;;;3.03;;
10365;SDS011;5229;41.820;23.490;2023-05-07T03:59:47;2.80;;;2.60;;
10365;SDS011;5229;41.820;23.490;2023-05-07T04:02:14;3.10;;;2.80;;
10365;SDS011;5229;41.820;23.490;2023-05-07T04:04:41;3.10;;;2.80;;
10365;SDS011;5229;41.820;23.490;2023-05-07T04:07:07;3.00;;;2.57;;
10365;SDS011;5229;41.820;23.490;2023-05-07T04:09:35;3.57;;;2.50;;
10365;SDS011;5229;41.820;23.490;2023-05-07T04:12:01;3.00;;;2.70;;
10365;SDS011;5229;41.820;23.490;2023-05-07T04:14:30;2.90;;;2.67;;
10365;SDS011;5229;41.820;23.490;2023-05-07T04:16:57;2.90;;;2.67;;
10365;SDS011;5229;41.820;23.490;2023-05-07T04:19:24;3.20;;;2.90;;
10365;SDS011;5229;41.820;23.490;2023-05-07T04:21:51;4.37;;;3.07;;
10365;SDS011;5229;41.820;23.490;2023-05-07T04:24:18;3.20;;;2.73;;
10365;SDS011;5229;41.820;23.490;2023-05-07T04:26:45;4.30;;;3.50;;
10365;SDS011;5229;41.820;23.490;2023-05-07T04:29:12;2.90;;;2.63;;
10365;SDS011;5229;41.820;23.490;2023-05-07T04:31:40;2.53;;;2.27;;
10365;SDS011;5229;41.820;23.490;2023-05-07T04:34:09;3.13;;;2.77;;
10365;SDS011;5229;41.820;23.490;2023-05-07T04:36:36;3.00;;;2.70;;
10365;SDS011;5229;41.820;23.490;2023-05-07T04:39:03;3.90;;;2.93;;
10365;SDS011;5229;41.820;23.490;2023-05-07T04:41:31;2.63;;;2.40;;
10365;SDS011;5229;41.820;23.490;2023-05-07T04:43:57;3.50;;;3.20;;
10365;SDS011;5229;41.820;23.490;2023-05-07T04:46:25;3.87;;;3.40;;
10365;SDS011;5229;41.820;23.490;2023-05-07T04:48:53;4.27;;;3.50;;
10365;SDS011;5229;41.820;23.490;2023-05-07T04:51:19;3.90;;;3.30;;
10365;SDS011;5229;41.820;23.490;2023-05-07T04:53:47;3.80;;;3.50;;
10365;SDS011;5229;41.820;23.490;2023-05-07T04:56:15;5.17;;;3.93;;
10365;SDS011;5229;41.820;23.490;2023-05-07T04:58:42;6.50;;;4.13;;
10365;SDS011;5229;41.820;23.490;2023-05-07T05:01:09;3.73;;;3.43;;
10365;SDS011;5229;41.820;23.490;2023-05-07T05:03:35;7.77;;;5.43;;
10365;SDS011;5229;41.820;23.490;2023-05-07T05:06:04;5.20;;;4.03;;
10365;SDS011;5229;41.820;23.490;2023-05-07T05:08:31;4.30;;;3.90;;
10365;SDS011;5229;41.820;23.490;2023-05-07T05:10:58;4.87;;;4.37;;
10365;SDS011;5229;41.820;23.490;2023-05-07T05:13:24;5.77;;;4.33;;
10365;SDS011;5229;41.820;23.490;2023-05-07T05:15:51;4.00;;;3.60;;
10365;SDS011;5229;41.820;23.490;2023-05-07T05:18:18;3.87;;;3.57;;
10365;SDS011;5229;41.820;23.490;2023-05-07T05:20:45;5.10;;;4.03;;
10365;SDS011;5229;41.820;23.490;2023-05-07T05:23:13;5.43;;;4.40;;
10365;SDS011;5229;41.820;23.490;2023-05-07T05:25:40;5.13;;;4.63;;
10365;SDS011;5229;41.820;23.490;2023-05-07T05:28:07;5.87;;;5.10;;
10365;SDS011;5229;41.820;23.490;2023-05-07T05:30:34;5.97;;;4.70;;
10365;SDS011;5229;41.820;23.490;2023-05-07T05:33:00;5.03;;;4.60;;
10365;SDS011;5229;41.820;23.490;2023-05-07T05:35:27;5.63;;;4.80;;
10365;SDS011;5229;41.820;23.490;2023-05-07T05:37:54;7.47;;;4.10;;
10365;SDS011;5229;41.820;23.490;2023-05-07T05:40:22;5.03;;;4.30;;
10365;SDS011;5229;41.820;23.490;2023-05-07T05:42:49;7.03;;;4.30;;
10365;SDS011;5229;41.820;23.490;2023-05-07T05:45:15;6.50;;;4.63;;
10365;SDS011;5229;41.820;23.490;2023-05-07T05:47:42;4.57;;;4.17;;
10365;SDS011;5229;41.820;23.490;2023-05-07T05:50:09;6.73;;;4.33;;
10365;SDS011;5229;41.820;23.490;2023-05-07T05:52:36;5.37;;;4.30;;
10365;SDS011;5229;41.820;23.490;2023-05-07T05:55:03;4.77;;;4.00;;
10365;SDS011;5229;41.820;23.490;2023-05-07T05:57:32;4.40;;;3.93;;
10365;SDS011;5229;41.820;23.490;2023-05-07T05:59:59;4.57;;;4.17;;
10365;SDS011;5229;41.820;23.490;2023-05-07T06:02:26;4.93;;;4.17;;
10365;SDS011;5229;41.820;23.490;2023-05-07T06:04:53;4.73;;;4.23;;
10365;SDS011;5229;41.820;23.490;2023-05-07T06:07:20;4.53;;;4.13;;
10365;SDS011;5229;41.820;23.490;2023-05-07T06:09:47;4.23;;;3.83;;
10365;SDS011;5229;41.820;23.490;2023-05-07T06:12:13;4.10;;;3.60;;
10365;SDS011;5229;41.820;23.490;2023-05-07T06:14:43;4.53;;;3.83;;
10365;SDS011;5229;41.820;23.490;2023-05-07T06:17:10;4.60;;;3.90;;
10365;SDS011;5229;41.820;23.490;2023-05-07T06:19:37;5.10;;;4.60;;
10365;SDS011;5229;41.820;23.490;2023-05-07T06:22:04;5.27;;;4.73;;
10365;SDS011;5229;41.820;23.490;2023-05-07T06:24:30;6.37;;;5.60;;
10365;SDS011;5229;41.820;23.490;2023-05-07T06:26:57;5.90;;;5.07;;
10365;SDS011;5229;41.820;23.490;2023-05-07T06:29:24;9.00;;;5.77;;
10365;SDS011;5229;41.820;23.490;2023-05-07T06:31:53;7.57;;;6.10;;
10365;SDS011;5229;41.820;23.490;2023-05-07T06:34:20;5.30;;;4.70;;
10365;SDS011;5229;41.820;23.490;2023-05-07T06:36:46;7.30;;;5.27;;
10365;SDS011;5229;41.820;23.490;2023-05-07T06:39:13;5.77;;;4.70;;
10365;SDS011;5229;41.820;23.490;2023-05-07T06:41:40;5.10;;;4.20;;
10365;SDS011;5229;41.820;23.490;2023-05-07T06:44:07;4.27;;;3.87;;
10365;SDS011;5229;41.820;23.490;2023-05-07T06:46:33;4.73;;;4.27;;
10365;SDS011;5229;41.820;23.490;2023-05-07T06:49:02;4.33;;;3.97;;
10365;SDS011;5229;41.820;23.490;2023-05-07T06:51:30;4.10;;;3.70;;
10365;SDS011;5229;41.820;23.490;2023-05-07T06:53:56;3.70;;;3.40;;
10365;SDS011;5229;41.820;23.490;2023-05-07T06:56:23;4.10;;;3.70;;
10365;SDS011;5229;41.820;23.490;2023-05-07T06:58:50;5.37;;;4.03;;
10365;SDS011;5229;41.820;23.490;2023-05-07T07:01:17;3.70;;;3.40;;
10365;SDS011;5229;41.820;23.490;2023-05-07T07:03:43;4.87;;;3.87;;
10365;SDS011;5229;41.820;23.490;2023-05-07T07:06:12;4.88;;;3.72;;
10365;SDS011;5229;41.820;23.490;2023-05-07T07:08:38;4.10;;;3.70;;
10365;SDS011;5229;41.820;23.490;2023-05-07T07:11:05;6.67;;;4.00;;
10365;SDS011;5229;41.820;23.490;2023-05-07T07:13:32;4.88;;;4.15;;
10365;SDS011;5229;41.820;23.490;2023-05-07T07:15:59;5.75;;;3.88;;
10365;SDS011;5229;41.820;23.490;2023-05-07T07:18:26;3.90;;;3.60;;
10365;SDS011;5229;41.820;23.490;2023-05-07T07:20:53;5.15;;;3.80;;
10365;SDS011;5229;41.820;23.490;2023-05-07T07:23:21;4.30;;;3.90;;
10365;SDS011;5229;41.820;23.490;2023-05-07T07:25:48;3.75;;;3.45;;
10365;SDS011;5229;41.820;23.490;2023-05-07T07:28:15;3.70;;;3.40;;
10365;SDS011;5229;41.820;23.490;2023-05-07T07:30:42;3.97;;;2.60;;
10365;SDS011;5229;41.820;23.490;2023-05-07T07:33:09;3.92;;;2.95;;
10365;SDS011;5229;41.820;23.490;2023-05-07T07:35:36;4.15;;;3.75;;
10365;SDS011;5229;41.820;23.490;2023-05-07T07:38:02;3.53;;;3.22;;
10365;SDS011;5229;41.820;23.490;2023-05-07T07:40:31;4.60;;;3.55;;
10365;SDS011;5229;41.820;23.490;2023-05-07T07:42:58;4.28;;;3.47;;
10365;SDS011;5229;41.820;23.490;2023-05-07T07:45:26;3.80;;;3.20;;
10365;SDS011;5229;41.820;23.490;2023-05-07T07:47:53;5.60;;;3.50;;
10365;SDS011;5229;41.820;23.490;2023-05-07T07:50:20;3.38;;;3.08;;
10365;SDS011;5229;41.820;23.490;2023-05-07T07:52:47;4.30;;;3.50;;
10365;SDS011;5229;41.820;23.490;2023-05-07T07:55:14;4.82;;;3.90;;
10365;SDS011;5229;41.820;23.490;2023-05-07T07:57:47;4.05;;;3.60;;
10365;SDS011;5229;41.820;23.490;2023-05-07T08:00:14;6.93;;;4.05;;
10365;SDS011;5229;41.820;23.490;2023-05-07T08:02:42;4.93;;;3.42;;
10365;SDS011;5229;41.820;23.490;2023-05-07T08:05:09;4.93;;;3.50;;
10365;SDS011;5229;41.820;23.490;2023-05-07T08:07:35;4.18;;;3.78;;
10365;SDS011;5229;41.820;23.490;2023-05-07T08:10:02;5.68;;;3.92;;
10365;SDS011;5229;41.820;23.490;2023-05-07T08:12:30;5.05;;;3.83;;
10365;SDS011;5229;41.820;23.490;2023-05-07T08:14:58;5.05;;;3.60;;
10365;SDS011;5229;41.820;23.490;2023-05-07T08:17:25;4.47;;;3.53;;
10365;SDS011;5229;41.820;23.490;2023-05-07T08:19:51;3.72;;;3.42;;
10365;SDS011;5229;41.820;23.490;2023-05-07T08:22:18;6.70;;;3.47;;
10365;SDS011;5229;41.820;23.490;2023-05-07T08:24:45;4.25;;;2.80;;
10365;SDS011;5229;41.820;23.490;2023-05-07T08:27:12;3.30;;;3.00;;
10365;SDS011;5229;41.820;23.490;2023-05-07T08:29:39;3.10;;;2.80;;
10365;SDS011;5229;41.820;23.490;2023-05-07T08:32:07;3.30;;;3.00;;
10365;SDS011;5229;41.820;23.490;2023-05-07T08:34:34;9.98;;;2.58;;
10365;SDS011;5229;41.820;23.490;2023-05-07T08:37:01;2.92;;;2.72;;
10365;SDS011;5229;41.820;23.490;2023-05-07T08:39:27;2.67;;;2.47;;
10365;SDS011;5229;41.820;23.490;2023-05-07T08:41:54;3.33;;;2.45;;
10365;SDS011;5229;41.820;23.490;2023-05-07T08:44:22;2.45;;;2.25;;
10365;SDS011;5229;41.820;23.490;2023-05-07T08:46:52;2.38;;;2.17;;
10365;SDS011;5229;41.820;23.490;2023-05-07T08:49:23;4.10;;;2.58;;
10365;SDS011;5229;41.820;23.490;2023-05-07T08:51:50;3.47;;;2.28;;
10365;SDS011;5229;41.820;23.490;2023-05-07T08:54:16;1.95;;;1.85;;
10365;SDS011;5229;41.820;23.490;2023-05-07T08:56:44;5.03;;;2.50;;
10365;SDS011;5229;41.820;23.490;2023-05-07T08:59:11;2.17;;;1.88;;
10365;SDS011;5229;41.820;23.490;2023-05-07T09:01:38;2.55;;;2.35;;
10365;SDS011;5229;41.820;23.490;2023-05-07T09:04:05;2.22;;;2.05;;
10365;SDS011;5229;41.820;23.490;2023-05-07T09:06:34;2.22;;;2.03;;
10365;SDS011;5229;41.820;23.490;2023-05-07T09:09:03;2.28;;;1.80;;
10365;SDS011;5229;41.820;23.490;2023-05-07T09:11:30;1.58;;;1.48;;
10365;SDS011;5229;41.820;23.490;2023-05-07T09:13:57;1.58;;;1.48;;
10365;SDS011;5229;41.820;23.490;2023-05-07T09:16:26;2.00;;;1.83;;
10365;SDS011;5229;41.820;23.490;2023-05-07T09:18:54;1.90;;;1.80;;
10365;SDS011;5229;41.820;23.490;2023-05-07T09:21:21;2.00;;;1.90;;
10365;SDS011;5229;41.820;23.490;2023-05-07T09:23:50;3.40;;;1.95;;
10365;SDS011;5229;41.820;23.490;2023-05-07T09:26:18;1.83;;;1.73;;
10365;SDS011;5229;41.820;23.490;2023-05-07T09:28:47;1.75;;;1.65;;
10365;SDS011;5229;41.820;23.490;2023-05-07T09:31:14;2.15;;;2.00;;
10365;SDS011;5229;41.820;23.490;2023-05-07T09:33:41;1.60;;;1.50;;
10365;SDS011;5229;41.820;23.490;2023-05-07T09:36:08;1.60;;;1.50;;
10365;SDS011;5229;41.820;23.490;2023-05-07T09:38:36;1.70;;;1.60;;
10365;SDS011;5229;41.820;23.490;2023-05-07T09:41:05;1.63;;;1.50;;
10365;SDS011;5229;41.820;23.490;2023-05-07T09:43:34;2.13;;;1.83;;
10365;SDS011;5229;41.820;23.490;2023-05-07T09:46:08;1.50;;;1.40;;
10365;SDS011;5229;41.820;23.490;2023-05-07T09:48:39;1.65;;;1.55;;
10365;SDS011;5229;41.820;23.490;2023-05-07T09:51:10;1.67;;;1.40;;
10365;SDS011;5229;41.820;23.490;2023-05-07T09:53:44;1.75;;;1.65;;
10365;SDS011;5229;41.820;23.490;2023-05-07T09:56:14;1.70;;;1.48;;
10365;SDS011;5229;41.820;23.490;2023-05-07T09:58:41;1.23;;;1.13;;
10365;SDS011;5229;41.820;23.490;2023-05-07T10:01:10;1.58;;;1.48;;
10365;SDS011;5229;41.820;23.490;2023-05-07T10:03:38;1.67;;;1.38;;
10365;SDS011;5229;41.820;23.490;2023-05-07T10:06:06;1.50;;;1.40;;
10365;SDS011;5229;41.820;23.490;2023-05-07T10:08:35;1.83;;;1.30;;
10365;SDS011;5229;41.820;23.490;2023-05-07T10:11:03;1.83;;;1.17;;
10365;SDS011;5229;41.820;23.490;2023-05-07T10:13:31;2.30;;;1.40;;
10365;SDS011;5229;41.820;23.490;2023-05-07T10:16:01;1.48;;;1.38;;
10365;SDS011;5229;41.820;23.490;2023-05-07T10:18:29;1.30;;;1.20;;
10365;SDS011;5229;41.820;23.490;2023-05-07T10:20:59;1.98;;;1.55;;
10365;SDS011;5229;41.820;23.490;2023-05-07T10:23:33;2.97;;;1.80;;
10365;SDS011;5229;41.820;23.490;2023-05-07T10:26:01;1.60;;;1.50;;
10365;SDS011;5229;41.820;23.490;2023-05-07T10:28:32;1.80;;;1.70;;
10365;SDS011;5229;41.820;23.490;2023-05-07T10:31:08;1.73;;;1.63;;
10365;SDS011;5229;41.820;23.490;2023-05-07T10:33:44;1.58;;;1.48;;
10365;SDS011;5229;41.820;23.490;2023-05-07T10:36:15;2.28;;;1.73;;
10365;SDS011;5229;41.820;23.490;2023-05-07T10:38:42;1.70;;;1.60;;
10365;SDS011;5229;41.820;23.490;2023-05-07T10:41:09;1.77;;;1.67;;
10365;SDS011;5229;41.820;23.490;2023-05-07T10:43:41;2.00;;;1.80;;
10365;SDS011;5229;41.820;23.490;2023-05-07T10:46:10;2.17;;;1.98;;
10365;SDS011;5229;41.820;23.490;2023-05-07T10:51:37;2.00;;;1.90;;
10365;SDS011;5229;41.820;23.490;2023-05-07T10:56:52;4.13;;;2.35;;
10365;SDS011;5229;41.820;23.490;2023-05-07T10:59:38;2.10;;;1.98;;
10365;SDS011;5229;41.820;23.490;2023-05-07T11:02:08;2.55;;;2.17;;
10365;SDS011;5229;41.820;23.490;2023-05-07T11:04:36;1.92;;;1.83;;
10365;SDS011;5229;41.820;23.490;2023-05-07T11:10:02;2.33;;;2.13;;
10365;SDS011;5229;41.820;23.490;2023-05-07T11:12:46;1.83;;;1.73;;
10365;SDS011;5229;41.820;23.490;2023-05-07T11:15:15;4.82;;;2.50;;
10365;SDS011;5229;41.820;23.490;2023-05-07T11:18:03;5.35;;;3.38;;
10365;SDS011;5229;41.820;23.490;2023-05-07T11:26:41;1.88;;;1.77;;
10365;SDS011;5229;41.820;23.490;2023-05-07T11:29:12;5.20;;;2.05;;
10365;SDS011;5229;41.820;23.490;2023-05-07T11:31:42;2.05;;;1.83;;
10365;SDS011;5229;41.820;23.490;2023-05-07T11:34:09;3.25;;;2.45;;
10365;SDS011;5229;41.820;23.490;2023-05-07T11:36:36;2.90;;;1.92;;
10365;SDS011;5229;41.820;23.490;2023-05-07T11:39:25;2.88;;;2.40;;
10365;SDS011;5229;41.820;23.490;2023-05-07T11:41:53;2.17;;;1.98;;
10365;SDS011;5229;41.820;23.490;2023-05-07T11:44:20;2.30;;;2.10;;
10365;SDS011;5229;41.820;23.490;2023-05-07T11:46:48;2.58;;;2.38;;
10365;SDS011;5229;41.820;23.490;2023-05-07T11:49:15;2.47;;;2.28;;
10365;SDS011;5229;41.820;23.490;2023-05-07T11:51:43;2.40;;;2.20;;
10365;SDS011;5229;41.820;23.490;2023-05-07T11:54:11;2.60;;;2.40;;
10365;SDS011;5229;41.820;23.490;2023-05-07T11:56:42;2.45;;;2.25;;
10365;SDS011;5229;41.820;23.490;2023-05-07T11:59:11;3.60;;;2.50;;
10365;SDS011;5229;41.820;23.490;2023-05-07T12:01:38;2.20;;;2.10;;
10365;SDS011;5229;41.820;23.490;2023-05-07T12:04:06;5.75;;;2.28;;
10365;SDS011;5229;41.820;23.490;2023-05-07T12:06:35;2.50;;;2.30;;
10365;SDS011;5229;41.820;23.490;2023-05-07T12:09:03;3.25;;;2.53;;
10365;SDS011;5229;41.820;23.490;2023-05-07T12:11:32;2.80;;;2.60;;
10365;SDS011;5229;41.820;23.490;2023-05-07T12:13:59;2.55;;;2.35;;
10365;SDS011;5229;41.820;23.490;2023-05-07T12:16:25;2.90;;;2.55;;
10365;SDS011;5229;41.820;23.490;2023-05-07T12:18:52;2.40;;;2.20;;
10365;SDS011;5229;41.820;23.490;2023-05-07T12:21:21;3.10;;;2.63;;
10365;SDS011;5229;41.820;23.490;2023-05-07T12:23:50;4.22;;;2.35;;
10365;SDS011;5229;41.820;23.490;2023-05-07T12:26:17;2.50;;;2.30;;
10365;SDS011;5229;41.820;23.490;2023-05-07T12:28:45;2.50;;;2.30;;
10365;SDS011;5229;41.820;23.490;2023-05-07T12:31:13;2.78;;;2.58;;
10365;SDS011;5229;41.820;23.490;2023-05-07T12:33:40;2.97;;;2.67;;
10365;SDS011;5229;41.820;23.490;2023-05-07T12:36:08;2.40;;;2.20;;
10365;SDS011;5229;41.820;23.490;2023-05-07T12:38:37;2.50;;;2.30;;
10365;SDS011;5229;41.820;23.490;2023-05-07T12:41:05;2.30;;;2.15;;
10365;SDS011;5229;41.820;23.490;2023-05-07T12:43:33;3.22;;;2.40;;
10365;SDS011;5229;41.820;23.490;2023-05-07T12:46:00;5.15;;;3.22;;
10365;SDS011;5229;41.820;23.490;2023-05-07T12:48:29;3.10;;;2.80;;
10365;SDS011;5229;41.820;23.490;2023-05-07T12:50:56;2.58;;;2.38;;
10365;SDS011;5229;41.820;23.490;2023-05-07T12:53:24;3.10;;;2.63;;
10365;SDS011;5229;41.820;23.490;2023-05-07T12:55:53;2.65;;;2.45;;
10365;SDS011;5229;41.820;23.490;2023-05-07T12:58:22;3.03;;;2.83;;
10365;SDS011;5229;41.820;23.490;2023-05-07T13:00:51;2.95;;;2.75;;
10365;SDS011;5229;41.820;23.490;2023-05-07T13:03:21;2.67;;;2.47;;
10365;SDS011;5229;41.820;23.490;2023-05-07T13:05:50;3.25;;;2.60;;
10365;SDS011;5229;41.820;23.490;2023-05-07T13:08:23;3.63;;;2.45;;
10365;SDS011;5229;41.820;23.490;2023-05-07T13:10:56;2.67;;;2.47;;
10365;SDS011;5229;41.820;23.490;2023-05-07T13:13:24;2.95;;;2.65;;
10365;SDS011;5229;41.820;23.490;2023-05-07T13:15:50;2.70;;;2.50;;
10365;SDS011;5229;41.820;23.490;2023-05-07T13:18:17;2.53;;;2.33;;
10365;SDS011;5229;41.820;23.490;2023-05-07T13:20:44;2.08;;;1.98;;
10365;SDS011;5229;41.820;23.490;2023-05-07T13:23:10;2.70;;;2.50;;
10365;SDS011;5229;41.820;23.490;2023-05-07T13:25:37;2.20;;;2.03;;
10365;SDS011;5229;41.820;23.490;2023-05-07T13:28:05;2.30;;;2.10;;
10365;SDS011;5229;41.820;23.490;2023-05-07T13:30:32;1.88;;;1.77;;
10365;SDS011;5229;41.820;23.490;2023-05-07T13:32:59;2.42;;;2.22;;
10365;SDS011;5229;41.820;23.490;2023-05-07T13:35:26;2.22;;;2.03;;
10365;SDS011;5229;41.820;23.490;2023-05-07T13:37:53;2.58;;;2.38;;
10365;SDS011;5229;41.820;23.490;2023-05-07T13:40:21;3.63;;;2.28;;
10365;SDS011;5229;41.820;23.490;2023-05-07T13:42:47;2.25;;;1.95;;
10365;SDS011;5229;41.820;23.490;2023-05-07T13:45:17;2.40;;;2.20;;
10365;SDS011;5229;41.820;23.490;2023-05-07T13:47:44;2.47;;;2.28;;
10365;SDS011;5229;41.820;23.490;2023-05-07T13:50:11;2.10;;;2.00;;
10365;SDS011;5229;41.820;23.490;2023-05-07T13:52:40;2.10;;;2.00;;
10365;SDS011;5229;41.820;23.490;2023-05-07T13:55:11;1.92;;;1.77;;
10365;SDS011;5229;41.820;23.490;2023-05-07T13:57:38;2.33;;;2.13;;
10365;SDS011;5229;41.820;23.490;2023-05-07T14:00:05;2.55;;;2.35;;
10365;SDS011;5229;41.820;23.490;2023-05-07T14:02:35;2.85;;;2.25;;
10365;SDS011;5229;41.820;23.490;2023-05-07T14:05:02;2.00;;;1.80;;
10365;SDS011;5229;41.820;23.490;2023-05-07T14:07:29;2.40;;;2.20;;
10365;SDS011;5229;41.820;23.490;2023-05-07T14:09:56;2.28;;;1.90;;
10365;SDS011;5229;41.820;23.490;2023-05-07T14:12:23;2.47;;;2.28;;
10365;SDS011;5229;41.820;23.490;2023-05-07T14:14:50;3.35;;;2.20;;
10365;SDS011;5229;41.820;23.490;2023-05-07T14:17:17;2.53;;;2.33;;
10365;SDS011;5229;41.820;23.490;2023-05-07T14:19:46;4.35;;;2.45;;
10365;SDS011;5229;41.820;23.490;2023-05-07T14:22:13;2.72;;;2.33;;
10365;SDS011;5229;41.820;23.490;2023-05-07T14:24:39;2.75;;;2.55;;
10365;SDS011;5229;41.820;23.490;2023-05-07T14:27:06;2.58;;;2.38;;
10365;SDS011;5229;41.820;23.490;2023-05-07T14:29:33;2.20;;;2.00;;
10365;SDS011;5229;41.820;23.490;2023-05-07T14:32:01;2.17;;;2.08;;
10365;SDS011;5229;41.820;23.490;2023-05-07T14:34:28;2.45;;;2.00;;
10365;SDS011;5229;41.820;23.490;2023-05-07T14:36:56;2.17;;;1.98;;
10365;SDS011;5229;41.820;23.490;2023-05-07T14:39:23;2.38;;;2.17;;
10365;SDS011;5229;41.820;23.490;2023-05-07T14:41:50;2.22;;;2.03;;
10365;SDS011;5229;41.820;23.490;2023-05-07T14:44:19;1.98;;;1.88;;
10365;SDS011;5229;41.820;23.490;2023-05-07T14:46:46;2.13;;;1.92;;
10365;SDS011;5229;41.820;23.490;2023-05-07T14:49:13;2.40;;;2.20;;
10365;SDS011;5229;41.820;23.490;2023-05-07T14:51:42;2.15;;;1.95;;
10365;SDS011;5229;41.820;23.490;2023-05-07T14:54:11;2.60;;;2.40;;
10365;SDS011;5229;41.820;23.490;2023-05-07T14:56:38;1.98;;;1.83;;
10365;SDS011;5229;41.820;23.490;2023-05-07T14:59:05;2.33;;;2.10;;
10365;SDS011;5229;41.820;23.490;2023-05-07T15:01:32;2.25;;;2.00;;
10365;SDS011;5229;41.820;23.490;2023-05-07T15:04:00;2.00;;;1.80;;
10365;SDS011;5229;41.820;23.490;2023-05-07T15:06:28;3.05;;;1.90;;